Bethel, AK

6:20 AM AKST on February 12, 2016 (GMT -0900)
Cape Newenham | | Change Station
CLOSE
Current Station
Airport
Location: Cape Newenham,
Elevation: 538 ft
Nearby Weather Stations

Elev 538 ft 58.65 °N, 162.06 °W | Updated 2 minutes ago

Light Rain Showers
Light Showers Rain
34 °F
Feels Like 34 °F
N
0
Wind Variable Wind from North

Today
High -- | Low -- °F
--% Chance of Precip.
Yesterday
High -- | Low -- °F
Precip. -- in
Pressure 29.31 in
Visibility 10.0 miles
Clouds Mostly Cloudy 1200 ft
Dew Point 32 °F
Humidity 93%
Rainfall 0.00 in
Snow Depth Not available.
9:29 AM 6:36 PM
Waxing Crescent, 21% visible
SPECI PAEH 121518Z AUTO 00000KT 10SM -SHRA BKN012 01/00 A2928 RMK AO2 SLP925
Pressure 29.31 in
Visibility 10.0 miles
Clouds Mostly Cloudy 1200 ft
Dew Point 32 °F
Humidity 93%
Rainfall 0.00 in
Snow Depth Not available.
9:29 AM 6:36 PM
Waxing Crescent, 21% visible
SPECI PAEH 121518Z AUTO 00000KT 10SM -SHRA BKN012 01/00 A2928 RMK AO2 SLP925

10-Day Weather Forecast

Almanac

Astronomy

Feb. 12, 2016 Rise Set
Actual Time
Civil Twilight
Nautical Twilight
Astronomical Twilight
Moon
Length of Visible Light
Length of Day
Tomorrow will be .
, % of the Moon is Illuminated

Today's Extremes

State Highs State Lows

Community

WunderPhotos

Upload Photos

1,892,329 photos uploaded!

WunderBlog® & News

Nearby

Air Quality

  Air Quality AQ Index Pollutant
Not available.

Snow Depth

Station Depth Elevation

Earthquake Activity

City Distance Mag. Time & Date
Minimum magnitude displayed is 2.5.

Coastal Water Temperatures

Place Temperature

Stations

Nearby Weather Stations

Station Location Temp. Windchill Dew Point Humidity Wind Precip. Elev Updated Type
                   

Watches & Warnings

There are currently no watches in effect.